Steamboat Springs, CO (80477)

3:02 AM MDT on August 23, 2014 (GMT -0600)
APRSWXNET Steamboat Springs CO US | Change Station
CLOSE
Current Station
Personal Weather Station
Location: Steamboat Springs, CO
Elevation: 6932 ft
Nearby Weather Stations

Elev 6932 ft 40.47 °N, 106.82 °W | Updated 38 minutes ago

Rain
Rain
54 °F
Feels Like 54 °F
N
5
Wind Variable Wind from NW
Gusts 6.0 mph

Today
High -- | Low -- °F
--% Chance of Precip.
Yesterday
High -- | Low -- °F
Precip. -- in
6:25 AM 7:53 PM
Waning Crescent, 4% visible
Pressure 30.09 in
Visibility 7.0 miles
Clouds Scattered Clouds 6500 ft
Overcast 8000 ft
Dew Point 54 °F
Humidity 100%
Rainfall 0.09 in
Snow Depth Not available.
UV 0 out of 12
Pollen 9.40 out of 12
Air Quality Not available.
Flu Activity Not available.
METAR KSBS 230834Z AUTO 00000KT 7SM SCT065 OVC080 11/11 A3009 RMK AO1 T01100107

More Conditions Fewer Conditions

Pressure 30.09 in
Visibility 7.0 miles
Clouds Scattered Clouds 6500 ft
Overcast 8000 ft
Dew Point 54 °F
Humidity 100%
Rainfall 0.09 in
Snow Depth Not available.
UV 0 out of 12
Pollen 9.40 out of 12
Air Quality Not available.
Flu Activity Not available.
METAR KSBS 230834Z AUTO 00000KT 7SM SCT065 OVC080 11/11 A3009 RMK AO1 T01100107

More Conditions Fewer Conditions

10-Day Weather Forecast

Almanac

Astronomy

Aug. 23, 2014 Rise Set
Actual Time 6:25 AM MDT 7:53 PM MDT
Civil Twilight 5:57 AM MDT 8:21 PM MDT
Nautical Twilight 5:22 AM MDT 8:56 PM MDT
Astronomical Twilight 4:46 AM MDT 9:32 PM MDT
Moon 4:44 AM MDT 6:39 PM MDT
Length of Visible Light 14h 24m
Length of Day
13h 27m
Tomorrow will be 2m 28s shorter.
Waning Crescent, 4% of the Moon is Illuminated
Today
Waning Crescent
Aug 25
New
Sep 2
First Quarter
Sep 8
Full
Sep 15
Last Quarter

Today's Extremes

State Highs State Lows

Community

WunderPhotos

Upload Photos

1,746,396 photos uploaded!

WunderBlogs® & News

By Dr. Jeff Masters
Director of Meteorology, Weather Underground
By Kari Strenfel
Meteorologist, Weather Underground
By Christopher C. Burt
Weather Historian, Weather Underground
August 23, 2014
August 23, 2014
August 22, 2014

Nearby

Snow Depth

Station Depth Elevation
Dry Lake 0 in 8400 ft
Tower 0 in 10500 ft
Rabbit Ears 0 in 9400 ft
Columbine 0 in 9160 ft
Crosho 0 in 9100 ft

Earthquake Activity

City Distance Mag. Time & Date
No recent earthquake activity has been reported nearby.
Minimum magnitude displayed is 2.5.

Coastal Water Temperatures

Place Temperature
No Stations Reporting

Nearby Weather Stations